Time;durP1;ratioP1;P1;durP2;ratioP2;P2;SDS_P1;SDS_P2;PMS_P1;PMS_P2;Temp;Humidity;BMP_temperature;BMP_pressure;BME280_temperature;BME280_humidity;BME280_pressure;Samples;Min_cycle;Max_cycle;Signal;HPM_P1;HPM_P2
2021/09/06 00:01:40;;;;;;;3.33;2.97;;;23.90;45.20;;;;;;5030519;28;20293;-42
2021/09/06 00:04:06;;;;;;;5.38;4.38;;;23.90;44.60;;;;;;5030641;28;20218;-46
2021/09/06 00:06:33;;;;;;;3.20;2.90;;;23.90;44.60;;;;;;5028874;28;20198;-46
2021/09/06 00:08:59;;;;;;;4.15;2.97;;;23.90;44.60;;;;;;5028447;28;20214;-49
2021/09/06 00:11:26;;;;;;;3.35;3.05;;;23.90;44.60;;;;;;5029168;28;20195;-50
2021/09/06 00:13:52;;;;;;;3.72;3.10;;;23.90;44.60;;;;;;5030808;28;20297;-50
2021/09/06 00:16:18;;;;;;;4.32;3.58;;;23.90;44.60;;;;;;5027366;28;20210;-46
2021/09/06 00:18:45;;;;;;;3.30;2.85;;;23.90;44.60;;;;;;5030394;28;20222;-48
2021/09/06 00:21:11;;;;;;;3.35;3.05;;;23.90;44.60;;;;;;5027034;28;20205;-50
2021/09/06 00:23:38;;;;;;;3.90;2.95;;;23.90;44.60;;;;;;5023898;28;20219;-50
2021/09/06 00:26:04;;;;;;;3.95;3.00;;;23.90;44.60;;;;;;5029214;28;20204;-50
2021/09/06 00:28:31;;;;;;;3.70;3.15;;;23.90;44.60;;;;;;5028077;28;20753;-48
2021/09/06 00:30:57;;;;;;;3.47;2.85;;;23.90;44.60;;;;;;5028097;28;20616;-45
2021/09/06 00:33:24;;;;;;;3.40;3.08;;;23.90;44.60;;;;;;5029652;28;20720;-49
2021/09/06 00:35:50;;;;;;;4.10;3.70;;;23.90;44.60;;;;;;5024581;28;20676;-47
2021/09/06 00:38:17;;;;;;;3.10;2.85;;;23.90;44.60;;;;;;5029000;28;20724;-46
2021/09/06 00:40:44;;;;;;;3.10;2.80;;;23.90;44.60;;;;;;5028953;28;20796;-50
2021/09/06 00:43:10;;;;;;;4.05;3.15;;;23.90;44.60;;;;;;5029133;28;20229;-46
2021/09/06 00:45:38;;;;;;;3.75;3.00;;;23.90;44.60;;;;;;5031418;28;20208;-48
2021/09/06 00:48:04;;;;;;;3.30;3.00;;;23.90;44.60;;;;;;5018708;28;20211;-49
2021/09/06 00:50:31;;;;;;;3.38;3.08;;;23.90;44.60;;;;;;5029464;28;20202;-44
2021/09/06 00:52:57;;;;;;;3.28;2.97;;;23.90;44.60;;;;;;5030642;28;20206;-47
2021/09/06 00:55:24;;;;;;;3.08;2.78;;;23.90;44.60;;;;;;5030586;28;20209;-48
2021/09/06 00:57:50;;;;;;;3.58;3.25;;;23.90;44.70;;;;;;5026444;28;20215;-50
2021/09/06 01:00:16;;;;;;;3.92;3.28;;;23.90;44.60;;;;;;5030171;28;20246;-50
2021/09/06 01:02:43;;;;;;;3.83;2.92;;;23.90;44.70;;;;;;5026548;28;20202;-49
2021/09/06 01:05:09;;;;;;;3.53;3.03;;;23.90;44.70;;;;;;5029008;28;20202;-49
2021/09/06 01:07:36;;;;;;;3.38;3.08;;;23.90;44.70;;;;;;5026018;28;20198;-48
2021/09/06 01:10:02;;;;;;;3.60;3.30;;;23.90;44.70;;;;;;5028617;28;20212;-48
2021/09/06 01:12:29;;;;;;;3.55;3.10;;;23.90;44.70;;;;;;5029683;28;20209;-46
2021/09/06 01:14:55;;;;;;;3.47;3.17;;;23.90;44.70;;;;;;5026938;28;20241;-47
2021/09/06 01:17:21;;;;;;;3.88;3.00;;;23.90;44.70;;;;;;5028486;28;20198;-46
2021/09/06 01:19:48;;;;;;;4.05;3.20;;;23.90;44.70;;;;;;5029538;28;20229;-49
2021/09/06 01:22:14;;;;;;;3.10;2.80;;;23.90;44.70;;;;;;5028800;28;20203;-44
2021/09/06 01:24:41;;;;;;;4.20;3.22;;;23.90;44.70;;;;;;5029859;28;20305;-47
2021/09/06 01:27:08;;;;;;;3.45;3.05;;;23.90;44.70;;;;;;5019808;28;20320;-43
2021/09/06 01:29:34;;;;;;;3.05;2.80;;;23.90;44.70;;;;;;5021656;28;20198;-48
2021/09/06 01:32:00;;;;;;;2.90;2.70;;;23.90;44.70;;;;;;5020436;28;20203;-43
2021/09/06 01:34:27;;;;;;;3.45;3.15;;;23.90;44.70;;;;;;5021203;28;20303;-44
2021/09/06 01:36:53;;;;;;;3.28;2.75;;;23.90;44.70;;;;;;5019199;28;20210;-48
2021/09/06 01:39:20;;;;;;;3.25;3.05;;;23.90;44.70;;;;;;5029067;28;20234;-49
2021/09/06 01:41:46;;;;;;;3.90;3.10;;;23.90;44.70;;;;;;5030796;28;20312;-48
2021/09/06 01:44:13;;;;;;;4.00;2.85;;;23.90;44.70;;;;;;5030383;28;20224;-46
2021/09/06 01:46:39;;;;;;;3.20;2.90;;;23.90;44.70;;;;;;5030332;28;20218;-47
2021/09/06 01:49:06;;;;;;;3.30;3.00;;;23.90;44.70;;;;;;5032977;28;20302;-49
2021/09/06 01:51:32;;;;;;;3.95;3.45;;;23.90;44.70;;;;;;5034433;28;20203;-46
2021/09/06 01:53:58;;;;;;;3.90;2.92;;;23.90;44.70;;;;;;5032344;28;20218;-50
2021/09/06 01:56:25;;;;;;;3.35;3.05;;;23.90;44.70;;;;;;5029587;28;20242;-45
2021/09/06 01:58:51;;;;;;;2.97;2.67;;;23.90;44.70;;;;;;5030593;28;20238;-46
2021/09/06 02:01:18;;;;;;;3.45;2.92;;;23.90;44.70;;;;;;5032433;28;20304;-45
2021/09/06 02:03:45;;;;;;;3.15;2.85;;;23.90;44.80;;;;;;5032517;28;20272;-43
2021/09/06 02:06:12;;;;;;;2.92;2.60;;;23.90;44.70;;;;;;5030667;28;20211;-47
2021/09/06 02:08:38;;;;;;;3.65;2.78;;;23.90;44.70;;;;;;5027859;28;20202;-49
2021/09/06 02:11:05;;;;;;;2.85;2.58;;;23.90;44.80;;;;;;5032053;28;20211;-50
2021/09/06 02:13:31;;;;;;;2.75;2.55;;;23.90;44.80;;;;;;5034005;28;20225;-47
2021/09/06 02:15:58;;;;;;;3.35;2.85;;;23.90;44.80;;;;;;5029372;28;20199;-48
2021/09/06 02:18:24;;;;;;;2.70;2.50;;;23.90;44.80;;;;;;5026594;28;20203;-48
2021/09/06 02:20:50;;;;;;;2.92;2.70;;;23.90;44.80;;;;;;5030748;28;20195;-50
2021/09/06 02:23:17;;;;;;;3.75;2.80;;;23.90;44.80;;;;;;5033633;28;20218;-50
2021/09/06 02:25:43;;;;;;;2.90;2.70;;;23.90;44.80;;;;;;5032305;28;20289;-49
2021/09/06 02:28:10;;;;;;;3.20;2.90;;;23.90;44.80;;;;;;5032184;28;20214;-49
2021/09/06 02:30:36;;;;;;;3.90;3.22;;;23.90;44.80;;;;;;5030277;28;20216;-49
2021/09/06 02:33:03;;;;;;;3.15;2.85;;;23.90;44.80;;;;;;5029130;28;20281;-49
2021/09/06 02:35:29;;;;;;;2.90;2.70;;;23.90;44.80;;;;;;5021756;28;20201;-46
2021/09/06 02:37:55;;;;;;;3.25;2.95;;;23.90;44.80;;;;;;5023571;28;20217;-43
2021/09/06 02:40:22;;;;;;;3.53;3.03;;;23.90;44.80;;;;;;5024017;28;20235;-44
2021/09/06 02:42:48;;;;;;;3.20;2.90;;;23.90;44.80;;;;;;5025976;28;20229;-48
2021/09/06 02:45:15;;;;;;;3.00;2.80;;;23.90;44.80;;;;;;5031552;28;20206;-48
2021/09/06 02:47:41;;;;;;;2.97;2.70;;;23.90;44.80;;;;;;5024371;28;20229;-48
2021/09/06 02:50:08;;;;;;;3.17;2.88;;;23.90;44.80;;;;;;5025123;28;20217;-46
2021/09/06 02:52:34;;;;;;;2.95;2.65;;;23.90;44.80;;;;;;5024186;28;20210;-50
2021/09/06 02:55:00;;;;;;;3.22;2.92;;;23.90;45.60;;;;;;5023111;28;20218;-48
2021/09/06 02:57:27;;;;;;;2.83;2.63;;;23.90;44.90;;;;;;5024956;28;20202;-48
2021/09/06 02:59:53;;;;;;;3.33;2.90;;;23.90;44.90;;;;;;5031222;28;20234;-51
2021/09/06 03:02:20;;;;;;;3.15;2.83;;;23.90;44.90;;;;;;5030679;28;20202;-52
2021/09/06 03:04:46;;;;;;;3.20;2.90;;;23.90;44.90;;;;;;5029238;28;20206;-43
2021/09/06 03:07:13;;;;;;;3.33;3.03;;;23.90;44.90;;;;;;5029013;28;20209;-50
2021/09/06 03:09:39;;;;;;;3.60;3.03;;;23.90;44.90;;;;;;5029713;28;20199;-50
2021/09/06 03:12:06;;;;;;;3.25;2.92;;;23.90;44.90;;;;;;5030407;28;20202;-48
2021/09/06 03:14:32;;;;;;;3.60;3.30;;;23.90;44.90;;;;;;5030474;28;20222;-51
2021/09/06 03:16:58;;;;;;;3.53;3.00;;;23.90;44.90;;;;;;5029636;28;20207;-45
2021/09/06 03:19:25;;;;;;;3.33;3.03;;;23.90;44.90;;;;;;5030408;28;20226;-48
2021/09/06 03:21:51;;;;;;;2.90;2.60;;;23.90;44.90;;;;;;5031116;28;20204;-49
2021/09/06 03:24:18;;;;;;;2.95;2.75;;;23.90;44.90;;;;;;5020698;28;20226;-45
2021/09/06 03:26:44;;;;;;;2.72;2.50;;;23.90;45.00;;;;;;5030273;28;20217;-45
2021/09/06 03:29:11;;;;;;;2.97;2.67;;;23.90;44.90;;;;;;5032494;28;20210;-50
2021/09/06 03:31:37;;;;;;;3.05;2.72;;;23.90;44.90;;;;;;5030339;28;20289;-48
2021/09/06 03:34:03;;;;;;;3.05;2.85;;;23.90;44.90;;;;;;5029515;28;20218;-43
2021/09/06 03:36:30;;;;;;;3.20;2.90;;;23.90;44.90;;;;;;5025521;28;20217;-45
2021/09/06 03:38:57;;;;;;;2.95;2.75;;;23.90;44.90;;;;;;5031415;28;20233;-46
2021/09/06 03:41:23;;;;;;;2.90;2.60;;;23.90;44.90;;;;;;5030446;28;20206;-44
2021/09/06 03:43:50;;;;;;;3.53;2.80;;;23.90;45.10;;;;;;5026139;28;20222;-43
2021/09/06 03:46:16;;;;;;;2.95;2.75;;;23.90;45.20;;;;;;5028776;28;20249;-46
2021/09/06 03:48:42;;;;;;;3.00;2.80;;;23.90;45.20;;;;;;5031404;28;20206;-44
2021/09/06 03:51:09;;;;;;;2.75;2.55;;;23.90;45.20;;;;;;5030860;28;20212;-47
2021/09/06 03:53:35;;;;;;;2.75;2.40;;;23.90;45.20;;;;;;5030294;28;20222;-46
2021/09/06 03:56:02;;;;;;;3.70;2.92;;;23.90;45.20;;;;;;5031645;28;20202;-45
2021/09/06 03:58:28;;;;;;;3.10;2.80;;;23.90;45.20;;;;;;5026378;28;20215;-43
2021/09/06 04:00:55;;;;;;;3.03;2.72;;;23.90;45.20;;;;;;5028999;28;20233;-42
2021/09/06 04:03:21;;;;;;;3.38;3.08;;;23.90;45.20;;;;;;5029425;28;20229;-46
2021/09/06 04:05:48;;;;;;;2.85;2.65;;;23.90;45.20;;;;;;5030590;28;20205;-45
2021/09/06 04:08:14;;;;;;;3.90;2.88;;;23.90;45.20;;;;;;5027701;28;20204;-43
2021/09/06 04:10:40;;;;;;;2.80;2.60;;;23.90;45.10;;;;;;5031765;28;20276;-43
2021/09/06 04:13:07;;;;;;;2.80;2.60;;;23.90;45.10;;;;;;5029947;28;20222;-44
2021/09/06 04:15:33;;;;;;;3.28;3.00;;;23.90;45.20;;;;;;5030243;28;20601;-45
2021/09/06 04:18:00;;;;;;;2.78;2.58;;;23.90;45.10;;;;;;5031923;28;20653;-46
2021/09/06 04:20:26;;;;;;;3.35;3.05;;;23.90;45.10;;;;;;5029410;28;20516;-43
2021/09/06 04:22:53;;;;;;;2.72;2.53;;;23.90;45.10;;;;;;5029366;28;20694;-43
2021/09/06 04:25:19;;;;;;;3.00;2.70;;;23.90;45.10;;;;;;5029629;28;20677;-45
2021/09/06 04:27:46;;;;;;;2.92;2.50;;;23.90;45.10;;;;;;5031497;28;20301;-47
2021/09/06 04:30:12;;;;;;;3.25;2.88;;;23.90;45.10;;;;;;5027900;28;20217;-46
2021/09/06 04:32:38;;;;;;;2.88;2.67;;;23.90;45.20;;;;;;5031360;28;20302;-45
2021/09/06 04:35:05;;;;;;;2.90;2.70;;;23.90;45.10;;;;;;5026871;28;20225;-45
2021/09/06 04:37:32;;;;;;;3.35;3.05;;;23.90;45.10;;;;;;5029413;28;20492;-46
2021/09/06 04:39:58;;;;;;;2.90;2.60;;;23.90;45.10;;;;;;5029819;28;20222;-44
2021/09/06 04:42:24;;;;;;;2.78;2.53;;;23.80;45.00;;;;;;5011330;28;20215;-44
2021/09/06 04:44:51;;;;;;;3.35;2.80;;;23.80;45.00;;;;;;5024611;28;20241;-46
2021/09/06 04:47:19;;;;;;;3.00;2.53;;;23.90;45.10;;;;;;5030072;28;20211;-47
2021/09/06 04:49:45;;;;;;;2.88;2.67;;;23.80;45.00;;;;;;5029185;28;20276;-45
2021/09/06 04:52:13;;;;;;;2.70;2.50;;;23.90;45.10;;;;;;5030107;28;20199;-46
2021/09/06 04:54:40;;;;;;;2.42;2.22;;;23.90;45.10;;;;;;5028684;28;20738;-46
2021/09/06 04:57:06;;;;;;;2.83;2.63;;;23.80;45.00;;;;;;5030741;28;20253;-46
2021/09/06 04:59:33;;;;;;;2.95;2.75;;;23.80;45.00;;;;;;5027435;28;20694;-44
2021/09/06 05:01:59;;;;;;;2.80;2.58;;;23.80;45.00;;;;;;5029134;28;20213;-47
2021/09/06 05:04:26;;;;;;;2.63;2.42;;;23.80;45.00;;;;;;5028207;28;20215;-43
2021/09/06 05:06:52;;;;;;;2.83;2.63;;;23.80;45.00;;;;;;5026079;28;20202;-45
2021/09/06 05:09:19;;;;;;;2.63;2.42;;;23.80;45.00;;;;;;5027305;28;20202;-44
2021/09/06 05:11:45;;;;;;;3.25;2.95;;;23.80;45.00;;;;;;5030681;28;20202;-47
2021/09/06 05:14:12;;;;;;;3.15;2.85;;;23.80;45.00;;;;;;5029018;28;20223;-45
2021/09/06 05:16:38;;;;;;;2.60;2.40;;;23.80;45.00;;;;;;5029897;28;20492;-45
2021/09/06 05:19:04;;;;;;;2.95;2.75;;;23.90;45.10;;;;;;5035121;28;20579;-45
2021/09/06 05:21:31;;;;;;;2.75;2.55;;;23.80;45.00;;;;;;5036149;28;20648;-47
2021/09/06 05:23:58;;;;;;;3.25;2.70;;;23.80;45.00;;;;;;5033203;28;20301;-48
2021/09/06 05:26:25;;;;;;;2.97;2.78;;;23.80;45.00;;;;;;5037139;28;20214;-45
2021/09/06 05:28:51;;;;;;;2.90;2.60;;;23.80;45.00;;;;;;5036623;28;20729;-45
2021/09/06 05:31:18;;;;;;;3.55;2.83;;;23.80;45.10;;;;;;5034169;28;20301;-45
2021/09/06 05:33:44;;;;;;;2.80;2.60;;;23.90;45.10;;;;;;5036891;28;20313;-44
2021/09/06 05:36:13;;;;;;;2.42;2.22;;;23.80;45.00;;;;;;5030808;28;20232;-38
2021/09/06 05:38:39;;;;;;;3.00;2.70;;;23.90;45.10;;;;;;5035459;28;20233;-37
2021/09/06 05:41:05;;;;;;;2.90;2.60;;;23.80;45.00;;;;;;5027583;28;20246;-38
2021/09/06 05:43:32;;;;;;;3.10;2.80;;;23.80;45.10;;;;;;5023943;28;20781;-38
2021/09/06 05:45:58;;;;;;;2.70;2.50;;;23.90;45.40;;;;;;5027115;28;20677;-46
2021/09/06 05:48:25;;;;;;;3.35;2.40;;;23.80;45.50;;;;;;5028517;28;20208;-42
2021/09/06 05:50:51;;;;;;;6.10;3.22;;;23.90;45.40;;;;;;5026189;28;20795;-38
2021/09/06 05:53:18;;;;;;;6.10;3.40;;;23.90;45.70;;;;;;5028156;28;20768;-39
2021/09/06 05:55:44;;;;;;;7.22;3.75;;;23.90;46.10;;;;;;5027517;28;20230;-40
2021/09/06 05:58:11;;;;;;;12.52;4.13;;;23.90;46.80;;;;;;5036513;28;20220;-42
2021/09/06 06:00:37;;;;;;;8.40;4.50;;;23.90;46.90;;;;;;5030657;28;20230;-49
2021/09/06 06:03:03;;;;;;;8.70;5.60;;;23.90;47.00;;;;;;5031701;28;20222;-47
2021/09/06 06:05:30;;;;;;;12.07;4.90;;;24.00;47.70;;;;;;5034297;28;20195;-37
2021/09/06 06:07:56;;;;;;;7.85;4.68;;;24.00;48.80;;;;;;5034936;28;20213;-36
2021/09/06 06:10:23;;;;;;;8.90;4.85;;;24.00;49.30;;;;;;5036940;28;20253;-36
2021/09/06 06:12:49;;;;;;;9.60;5.05;;;24.00;49.30;;;;;;5032563;28;20226;-38
2021/09/06 06:15:16;;;;;;;12.88;5.05;;;24.00;49.50;;;;;;5033925;28;20465;-44
2021/09/06 06:17:43;;;;;;;10.68;4.85;;;24.00;50.10;;;;;;5033826;28;20217;-38
2021/09/06 06:20:09;;;;;;;13.18;7.90;;;24.00;50.30;;;;;;5036279;28;20736;-37
2021/09/06 06:22:36;;;;;;;13.65;8.30;;;24.00;48.50;;;;;;5033806;28;20619;-40
2021/09/06 06:25:03;;;;;;;11.55;7.85;;;23.40;44.10;;;;;;5020196;28;20209;-38
2021/09/06 06:27:29;;;;;;;11.02;8.55;;;23.00;45.20;;;;;;5019320;28;20302;-37
2021/09/06 06:29:55;;;;;;;9.27;8.27;;;22.90;45.00;;;;;;5017040;28;20220;-37
2021/09/06 06:32:22;;;;;;;11.60;8.13;;;22.60;43.90;;;;;;5016287;28;20731;-37
2021/09/06 06:34:48;;;;;;;9.93;7.72;;;22.30;44.50;;;;;;5018872;28;20710;-38
2021/09/06 06:37:15;;;;;;;9.20;6.65;;;22.50;45.50;;;;;;5019583;28;20213;-37
2021/09/06 06:39:41;;;;;;;8.05;6.40;;;22.70;46.40;;;;;;5024443;28;20218;-38
2021/09/06 06:42:08;;;;;;;7.45;6.38;;;22.90;46.70;;;;;;5030217;28;20322;-37
2021/09/06 06:44:34;;;;;;;8.80;6.32;;;23.10;46.90;;;;;;5025523;28;20199;-42
2021/09/06 06:47:00;;;;;;;7.65;5.65;;;23.20;47.00;;;;;;5030723;28;20213;-38
2021/09/06 06:49:27;;;;;;;7.28;6.40;;;23.30;47.00;;;;;;5030250;28;20682;-37
2021/09/06 06:51:54;;;;;;;6.97;6.00;;;23.30;47.00;;;;;;5029760;28;20284;-38
2021/09/06 06:54:20;;;;;;;7.18;6.15;;;23.40;47.10;;;;;;5030492;28;20519;-37
2021/09/06 06:56:47;;;;;;;7.38;5.72;;;23.40;47.50;;;;;;5028764;28;20264;-38
2021/09/06 06:59:13;;;;;;;8.55;5.55;;;23.50;48.30;;;;;;5024211;28;20301;-37
2021/09/06 07:01:40;;;;;;;5.97;5.35;;;23.50;47.90;;;;;;5027071;28;20248;-41
2021/09/06 07:04:06;;;;;;;7.63;5.55;;;23.50;47.90;;;;;;5024679;28;20203;-37
2021/09/06 07:06:32;;;;;;;7.43;6.03;;;23.50;47.40;;;;;;5020841;28;20202;-37
2021/09/06 07:09:00;;;;;;;7.32;6.57;;;23.50;47.70;;;;;;5022542;28;20217;-47
2021/09/06 07:11:26;;;;;;;7.30;5.40;;;23.50;47.50;;;;;;5020557;28;20209;-40
2021/09/06 07:13:53;;;;;;;7.13;5.75;;;23.50;47.20;;;;;;5024497;28;20200;-37
2021/09/06 07:16:19;;;;;;;5.93;4.95;;;23.50;47.20;;;;;;5028522;28;20226;-48
2021/09/06 07:18:46;;;;;;;6.22;5.60;;;23.50;48.00;;;;;;5031169;28;20198;-37
2021/09/06 07:21:12;;;;;;;5.82;5.13;;;23.50;47.30;;;;;;5030588;28;20265;-37
2021/09/06 07:23:39;;;;;;;8.90;6.07;;;23.50;48.00;;;;;;5028582;28;20213;-41
2021/09/06 07:26:05;;;;;;;7.15;4.82;;;23.60;47.90;;;;;;5030045;28;20214;-42
2021/09/06 07:28:32;;;;;;;5.65;5.13;;;23.60;47.60;;;;;;5024406;28;20201;-37
2021/09/06 07:30:58;;;;;;;9.98;5.57;;;23.60;47.40;;;;;;5022256;28;20310;-37
2021/09/06 07:33:25;;;;;;;9.15;6.75;;;23.60;47.60;;;;;;5024539;28;20205;-37
2021/09/06 07:35:51;;;;;;;9.63;7.20;;;23.60;46.80;;;;;;5026006;28;20199;-37
2021/09/06 07:38:18;;;;;;;6.80;6.20;;;23.50;46.50;;;;;;5025718;28;20255;-41
2021/09/06 07:40:44;;;;;;;9.38;6.80;;;23.50;46.50;;;;;;5022483;28;20233;-44
2021/09/06 07:43:11;;;;;;;6.80;5.28;;;23.50;46.60;;;;;;5027426;28;20222;-38
2021/09/06 07:45:37;;;;;;;7.07;5.60;;;23.50;47.30;;;;;;5022909;28;20214;-42
2021/09/06 07:48:03;;;;;;;8.90;5.75;;;23.50;47.60;;;;;;5024910;28;20209;-43
2021/09/06 07:50:30;;;;;;;10.00;7.30;;;23.60;47.30;;;;;;5021302;28;20207;-37
2021/09/06 07:52:56;;;;;;;7.95;6.40;;;23.60;46.80;;;;;;5020239;28;20232;-38
2021/09/06 07:55:23;;;;;;;8.15;6.07;;;23.60;47.00;;;;;;5025372;28;20207;-39
2021/09/06 07:57:49;;;;;;;6.90;5.65;;;23.60;47.30;;;;;;5027282;28;20202;-37
2021/09/06 08:00:16;;;;;;;7.32;5.88;;;23.60;47.70;;;;;;5020437;28;20233;-39
2021/09/06 08:02:48;;;;;;;7.65;5.63;;;23.60;47.80;;;;;;5028132;28;20222;-42
2021/09/06 08:05:14;;;;;;;7.63;5.45;;;23.70;47.40;;;;;;5030746;28;20202;-38
2021/09/06 08:07:41;;;;;;;6.22;5.63;;;23.70;47.60;;;;;;5029590;28;20209;-40
2021/09/06 08:10:07;;;;;;;6.50;5.57;;;23.70;47.90;;;;;;5029675;28;20216;-37
2021/09/06 08:12:34;;;;;;;6.07;5.47;;;23.70;47.80;;;;;;5030092;28;20648;-39
2021/09/06 08:15:00;;;;;;;9.82;5.75;;;23.70;47.90;;;;;;5031185;28;20544;-38
2021/09/06 08:17:27;;;;;;;7.60;6.13;;;23.70;48.00;;;;;;5029992;28;20522;-38
2021/09/06 08:19:53;;;;;;;6.65;5.97;;;23.70;47.90;;;;;;5030804;28;20286;-37
2021/09/06 08:22:19;;;;;;;6.68;5.45;;;23.70;48.20;;;;;;5029690;28;20312;-38
2021/09/06 08:24:46;;;;;;;6.75;5.88;;;23.70;48.00;;;;;;5030792;28;20201;-40
2021/09/06 08:27:12;;;;;;;5.80;5.30;;;23.70;48.40;;;;;;5031671;28;20293;-45
2021/09/06 08:29:39;;;;;;;8.52;6.07;;;23.60;48.30;;;;;;5030114;28;20226;-38
2021/09/06 08:32:05;;;;;;;9.20;6.30;;;23.70;48.10;;;;;;5027297;28;20223;-37
2021/09/06 08:34:32;;;;;;;7.40;6.10;;;23.70;47.70;;;;;;5022746;28;20209;-42
2021/09/06 08:36:58;;;;;;;6.07;5.45;;;23.70;48.10;;;;;;5029591;28;20211;-43
2021/09/06 08:39:25;;;;;;;6.57;5.47;;;23.60;48.30;;;;;;5021112;28;20198;-42
2021/09/06 08:41:51;;;;;;;6.22;5.63;;;23.60;48.30;;;;;;5026783;28;20289;-41
2021/09/06 08:44:18;;;;;;;6.03;5.53;;;23.70;48.20;;;;;;5022143;28;20289;-43
2021/09/06 08:46:44;;;;;;;9.75;6.00;;;23.70;47.40;;;;;;5028248;28;20198;-37
2021/09/06 08:49:11;;;;;;;6.07;5.43;;;23.70;47.40;;;;;;5028858;28;20199;-39
2021/09/06 08:51:37;;;;;;;6.78;5.97;;;23.70;47.40;;;;;;5028688;28;20238;-38
2021/09/06 08:54:03;;;;;;;9.20;5.90;;;23.70;47.50;;;;;;5019490;28;20198;-40
2021/09/06 08:56:30;;;;;;;6.32;5.20;;;23.80;47.50;;;;;;5027439;28;20204;-47
2021/09/06 08:58:56;;;;;;;8.30;5.35;;;23.80;47.50;;;;;;5029985;28;20210;-40
2021/09/06 09:01:23;;;;;;;7.25;5.65;;;23.80;47.50;;;;;;5028663;28;20603;-37
2021/09/06 09:03:49;;;;;;;7.75;5.55;;;23.80;47.50;;;;;;5031183;28;20203;-37
2021/09/06 09:06:16;;;;;;;6.50;5.38;;;23.80;47.50;;;;;;5029710;28;20232;-36
2021/09/06 09:08:43;;;;;;;7.50;5.55;;;23.80;47.50;;;;;;5030015;28;20206;-37
2021/09/06 09:11:09;;;;;;;5.78;5.18;;;23.80;47.50;;;;;;5028946;28;20222;-41
2021/09/06 09:13:37;;;;;;;6.75;5.68;;;23.80;47.30;;;;;;5029752;28;20308;-44
2021/09/06 09:16:05;;;;;;;7.60;5.88;;;23.80;47.20;;;;;;5021571;28;20202;-37
2021/09/06 09:18:32;;;;;;;8.15;6.10;;;23.80;47.00;;;;;;5020458;28;20257;-38
2021/09/06 09:20:59;;;;;;;7.68;5.95;;;23.80;47.30;;;;;;5023590;28;20234;-41
2021/09/06 09:23:25;;;;;;;6.60;6.00;;;23.80;47.30;;;;;;5029327;28;20556;-43
2021/09/06 09:25:52;;;;;;;9.18;5.57;;;23.80;47.10;;;;;;5025813;28;20703;-41
2021/09/06 09:28:18;;;;;;;6.78;5.10;;;23.80;46.90;;;;;;5010198;28;20624;-38
2021/09/06 09:30:44;;;;;;;5.93;5.25;;;23.80;46.90;;;;;;5027175;28;20698;-39
2021/09/06 09:33:11;;;;;;;7.72;5.85;;;23.80;46.80;;;;;;5030522;28;20569;-45
2021/09/06 09:35:37;;;;;;;5.28;4.78;;;23.80;46.80;;;;;;5029819;28;20549;-39
2021/09/06 09:38:04;;;;;;;9.38;5.35;;;23.80;46.70;;;;;;5028389;28;20240;-45
2021/09/06 09:40:30;;;;;;;5.88;5.35;;;23.80;46.80;;;;;;5032776;28;20230;-43
2021/09/06 09:42:57;;;;;;;6.05;5.43;;;23.90;46.80;;;;;;5029053;28;20202;-39
2021/09/06 09:45:23;;;;;;;5.80;5.20;;;23.80;46.60;;;;;;5029906;28;20209;-41
2021/09/06 09:47:50;;;;;;;6.93;5.47;;;23.80;46.60;;;;;;5029787;28;20210;-41
2021/09/06 09:50:16;;;;;;;6.65;5.57;;;23.90;46.70;;;;;;5028506;28;20217;-45
2021/09/06 09:52:43;;;;;;;5.45;4.95;;;23.90;46.60;;;;;;5029952;28;20202;-38
2021/09/06 09:55:09;;;;;;;5.93;5.28;;;23.90;46.60;;;;;;5029622;28;20261;-43
2021/09/06 09:57:36;;;;;;;6.97;5.68;;;23.80;46.40;;;;;;5029392;28;20293;-43
2021/09/06 10:00:02;;;;;;;6.35;5.75;;;23.90;46.50;;;;;;5028575;28;20212;-42
2021/09/06 10:02:28;;;;;;;5.47;4.97;;;23.90;46.50;;;;;;5029662;28;20235;-43
2021/09/06 10:04:55;;;;;;;5.35;4.82;;;23.90;46.40;;;;;;5029238;28;20198;-41
2021/09/06 10:07:22;;;;;;;5.57;5.07;;;23.90;46.40;;;;;;5025236;28;20205;-41
2021/09/06 10:09:49;;;;;;;8.00;5.20;;;23.90;46.60;;;;;;5026350;28;20211;-39
2021/09/06 10:12:15;;;;;;;7.63;5.55;;;23.90;47.60;;;;;;5021860;28;20218;-44
2021/09/06 10:14:41;;;;;;;6.95;5.20;;;23.90;47.20;;;;;;5025683;28;20203;-40
2021/09/06 10:17:08;;;;;;;7.38;5.65;;;23.90;47.60;;;;;;5022214;28;20194;-38
2021/09/06 10:19:34;;;;;;;6.00;5.38;;;24.00;47.70;;;;;;5025578;28;20206;-42
2021/09/06 10:22:01;;;;;;;5.40;4.78;;;24.00;47.70;;;;;;5024336;28;20236;-39
2021/09/06 10:24:27;;;;;;;6.25;5.00;;;24.00;47.80;;;;;;5026603;28;20209;-41
2021/09/06 10:26:54;;;;;;;5.50;4.93;;;24.00;47.70;;;;;;5022678;28;20203;-42
2021/09/06 10:29:20;;;;;;;7.97;5.60;;;24.00;47.70;;;;;;5023607;28;20198;-38
2021/09/06 10:31:46;;;;;;;6.03;5.28;;;24.00;47.70;;;;;;5023360;28;20226;-43
2021/09/06 10:34:13;;;;;;;6.47;5.38;;;24.10;47.80;;;;;;5024244;28;20202;-40
2021/09/06 10:36:39;;;;;;;6.32;4.45;;;24.10;47.80;;;;;;5024996;28;20213;-41
2021/09/06 10:39:06;;;;;;;6.95;5.45;;;24.10;47.80;;;;;;5024327;28;20199;-43
2021/09/06 10:41:32;;;;;;;5.63;5.13;;;24.10;47.80;;;;;;5023399;28;20292;-44
2021/09/06 10:43:59;;;;;;;5.32;4.82;;;24.10;47.80;;;;;;5023807;28;20209;-43
2021/09/06 10:46:25;;;;;;;8.30;5.53;;;24.10;47.80;;;;;;5030038;28;20198;-41
2021/09/06 10:48:52;;;;;;;6.35;4.95;;;24.10;47.80;;;;;;5032344;28;20198;-41
2021/09/06 10:51:18;;;;;;;5.55;4.57;;;24.10;47.70;;;;;;5026183;28;20230;-45
2021/09/06 10:53:45;;;;;;;8.15;5.25;;;24.10;47.50;;;;;;5023300;28;20203;-42
2021/09/06 10:56:11;;;;;;;6.35;5.25;;;24.10;47.80;;;;;;5031389;28;20199;-46
2021/09/06 10:58:37;;;;;;;6.25;4.78;;;24.00;47.70;;;;;;5031971;28;20662;-43
2021/09/06 11:01:08;;;;;;;7.05;5.60;;;24.10;47.80;;;;;;5028038;28;20234;-42
2021/09/06 11:03:34;;;;;;;7.35;5.22;;;24.10;47.80;;;;;;5032743;28;20569;-46
2021/09/06 11:06:01;;;;;;;6.93;5.30;;;24.10;47.80;;;;;;5030326;28;20202;-45
2021/09/06 11:08:27;;;;;;;8.10;5.25;;;24.10;47.90;;;;;;5026287;28;20225;-41
2021/09/06 11:10:53;;;;;;;9.15;6.35;;;24.10;47.80;;;;;;5024884;28;20546;-45
2021/09/06 11:13:20;;;;;;;6.82;5.38;;;24.10;48.10;;;;;;5031828;28;20261;-41
2021/09/06 11:15:46;;;;;;;6.22;5.03;;;24.10;48.50;;;;;;5022649;28;20646;-46
2021/09/06 11:18:13;;;;;;;6.78;5.75;;;24.10;48.10;;;;;;5024336;28;20249;-45
2021/09/06 11:20:39;;;;;;;7.38;6.50;;;24.10;48.60;;;;;;5026397;28;20309;-45
2021/09/06 11:23:06;;;;;;;7.13;5.57;;;24.10;48.50;;;;;;5027468;28;20206;-48
2021/09/06 11:25:32;;;;;;;6.00;5.40;;;24.10;48.30;;;;;;5023990;28;20194;-43
2021/09/06 11:27:59;;;;;;;6.20;5.60;;;24.10;48.80;;;;;;5023622;28;20199;-42
2021/09/06 11:30:25;;;;;;;7.13;5.93;;;24.10;48.40;;;;;;5022262;28;20674;-41
2021/09/06 11:32:52;;;;;;;6.88;5.20;;;24.10;48.60;;;;;;5027676;28;20246;-45
2021/09/06 11:35:19;;;;;;;7.25;5.38;;;24.10;48.30;;;;;;5024186;28;20286;-41
2021/09/06 11:37:45;;;;;;;7.00;5.70;;;24.10;48.70;;;;;;5030174;28;20225;-45
2021/09/06 11:40:12;;;;;;;5.88;5.35;;;24.10;48.20;;;;;;5026696;28;20309;-39
2021/09/06 11:42:38;;;;;;;6.03;5.43;;;24.10;47.80;;;;;;5029544;28;20233;-40
2021/09/06 11:45:05;;;;;;;7.22;5.18;;;24.10;48.20;;;;;;5025537;28;20202;-39
2021/09/06 11:47:31;;;;;;;6.22;5.43;;;24.10;47.80;;;;;;5024084;28;20199;-42
2021/09/06 11:49:58;;;;;;;8.52;6.18;;;24.10;48.00;;;;;;5026547;28;20231;-40
2021/09/06 11:52:24;;;;;;;5.93;5.30;;;24.10;47.80;;;;;;5025098;28;20205;-42
2021/09/06 11:54:51;;;;;;;5.82;4.75;;;24.00;47.70;;;;;;5027301;28;20217;-40
2021/09/06 11:57:17;;;;;;;5.80;5.30;;;24.00;47.70;;;;;;5024681;28;20290;-43
2021/09/06 11:59:44;;;;;;;7.03;5.82;;;24.00;47.70;;;;;;5025084;28;20569;-45
2021/09/06 12:02:10;;;;;;;6.40;5.70;;;24.00;47.70;;;;;;5024125;28;20611;-41
2021/09/06 12:04:37;;;;;;;7.75;6.03;;;24.10;47.90;;;;;;5021012;28;20562;-39
2021/09/06 12:07:03;;;;;;;8.07;5.90;;;24.10;47.80;;;;;;5021089;28;20209;-43
2021/09/06 12:09:30;;;;;;;6.18;5.57;;;24.10;47.80;;;;;;5026268;28;20222;-40
2021/09/06 12:11:56;;;;;;;6.40;5.60;;;24.10;47.80;;;;;;5031050;28;20290;-46
2021/09/06 12:14:23;;;;;;;5.97;5.38;;;24.10;47.80;;;;;;5029319;28;20210;-41
2021/09/06 12:16:49;;;;;;;6.75;5.70;;;24.10;47.80;;;;;;5031540;28;20635;-40
2021/09/06 12:19:16;;;;;;;6.07;5.20;;;24.10;47.80;;;;;;5030122;28;20222;-42
2021/09/06 12:21:43;;;;;;;6.78;5.63;;;24.10;47.80;;;;;;5030289;28;20341;-42
2021/09/06 12:24:09;;;;;;;6.03;5.43;;;24.00;47.70;;;;;;5031428;28;20202;-43
2021/09/06 12:26:35;;;;;;;5.93;5.40;;;24.10;47.80;;;;;;5026309;28;20293;-45
2021/09/06 12:29:02;;;;;;;7.30;5.60;;;24.10;48.00;;;;;;5028294;28;20207;-41
2021/09/06 12:31:28;;;;;;;5.60;5.10;;;24.10;47.80;;;;;;5030236;28;20377;-45
2021/09/06 12:33:55;;;;;;;7.10;5.57;;;24.10;47.80;;;;;;5030054;28;20208;-39
2021/09/06 12:36:21;;;;;;;6.07;5.35;;;24.10;47.80;;;;;;5028827;28;20202;-44
2021/09/06 12:38:48;;;;;;;5.25;4.82;;;24.10;47.80;;;;;;5028417;28;20298;-45
2021/09/06 12:41:14;;;;;;;7.90;5.63;;;24.10;47.80;;;;;;5030770;28;20293;-41